Time;durP1;ratioP1;P1;durP2;ratioP2;P2;SDS_P1;SDS_P2;PMS_P1;PMS_P2;Temp;Humidity;BMP_temperature;BMP_pressure;BME280_temperature;BME280_humidity;BME280_pressure;Samples;Min_cycle;Max_cycle;Signal;HPM_P1;HPM_P2
2022/01/04 00:00:17;;;;;;;1.42;0.80;;;8.10;92.30;;;;;;1873014;77;21080;-45
2022/01/04 00:02:46;;;;;;;2.77;1.60;;;8.10;92.40;;;;;;1872863;77;21093;-46
2022/01/04 00:05:15;;;;;;;2.70;1.40;;;8.10;92.20;;;;;;1872887;77;21013;-46
2022/01/04 00:07:44;;;;;;;4.03;1.52;;;8.10;92.30;;;;;;1872981;76;21452;-44
2022/01/04 00:10:19;;;;;;;5.00;1.70;;;8.10;92.80;;;;;;1872850;75;21123;-45
2022/01/04 00:15:31;;;;;;;5.53;2.25;;;8.10;92.60;;;;;;1872960;77;21044;-45
2022/01/04 00:18:01;;;;;;;5.20;2.10;;;8.20;92.40;;;;;;1873001;75;21115;-45
2022/01/04 00:20:30;;;;;;;2.20;1.92;;;8.20;92.30;;;;;;1872895;75;21087;-44
2022/01/04 00:22:59;;;;;;;6.65;2.15;;;8.20;92.30;;;;;;1872933;75;21100;-45
2022/01/04 00:25:29;;;;;;;4.05;2.35;;;8.20;92.60;;;;;;1872872;76;21092;-47
2022/01/04 00:28:00;;;;;;;3.83;1.67;;;8.20;92.60;;;;;;1872853;77;21072;-44
2022/01/04 00:30:29;;;;;;;3.15;1.90;;;8.20;92.60;;;;;;1872812;75;21109;-44
2022/01/04 00:32:59;;;;;;;4.75;1.98;;;8.20;92.40;;;;;;1872872;77;21030;-47
2022/01/04 00:35:28;;;;;;;4.50;2.05;;;8.20;92.70;;;;;;1872886;75;21096;-45
2022/01/04 00:37:58;;;;;;;4.97;2.27;;;8.20;92.70;;;;;;1872988;75;21099;-45
2022/01/04 00:40:28;;;;;;;3.55;1.80;;;8.20;92.60;;;;;;1872838;75;21103;-45
2022/01/04 00:43:00;;;;;;;1.87;1.50;;;8.20;92.70;;;;;;1872851;77;21036;-46
2022/01/04 00:45:36;;;;;;;3.33;1.95;;;8.20;92.50;;;;;;1872990;77;21131;-44
2022/01/04 00:50:33;;;;;;;5.87;2.00;;;8.20;92.50;;;;;;1872848;75;21530;-44
2022/01/04 00:53:04;;;;;;;3.80;2.08;;;8.20;92.70;;;;;;1873013;77;21136;-45
2022/01/04 00:55:34;;;;;;;5.58;2.20;;;8.20;92.40;;;;;;1872856;76;21006;-48
2022/01/04 00:58:04;;;;;;;6.60;2.80;;;8.20;92.80;;;;;;1872981;75;21054;-44
2022/01/04 01:00:34;;;;;;;2.65;1.67;;;8.20;92.70;;;;;;1872922;75;21053;-47
2022/01/04 01:03:03;;;;;;;3.95;2.05;;;8.20;92.50;;;;;;1872872;77;21137;-49
2022/01/04 01:05:33;;;;;;;5.78;2.17;;;8.20;92.60;;;;;;1872867;75;21013;-44
2022/01/04 01:08:03;;;;;;;6.17;2.70;;;8.20;92.60;;;;;;1872867;77;21029;-45
2022/01/04 01:10:45;;;;;;;6.42;3.30;;;8.20;92.30;;;;;;1872825;75;21025;-46
2022/01/04 01:13:13;;;;;;;3.40;2.55;;;8.20;92.70;;;;;;1872885;76;21472;-45
2022/01/04 01:15:45;;;;;;;4.37;2.77;;;8.20;92.90;;;;;;1872874;77;21037;-45
2022/01/04 01:18:15;;;;;;;8.93;4.20;;;8.30;93.10;;;;;;1872995;77;21457;-44
2022/01/04 01:20:47;;;;;;;7.53;4.00;;;8.30;92.80;;;;;;1872896;77;21030;-44
2022/01/04 01:23:16;;;;;;;7.67;4.55;;;8.30;92.80;;;;;;1872860;77;21124;-46
2022/01/04 01:25:45;;;;;;;6.58;4.72;;;8.30;92.70;;;;;;1872883;77;21104;-45
2022/01/04 01:28:16;;;;;;;8.18;4.90;;;8.30;92.80;;;;;;1872775;77;21030;-45
2022/01/04 01:30:45;;;;;;;10.48;6.28;;;8.30;92.80;;;;;;1872770;75;21069;-45
2022/01/04 01:33:15;;;;;;;16.02;6.72;;;8.40;92.50;;;;;;1872946;77;21034;-45
2022/01/04 01:35:45;;;;;;;13.95;7.28;;;8.40;92.80;;;;;;1872850;77;21131;-45
2022/01/04 01:38:16;;;;;;;16.00;8.10;;;8.40;92.60;;;;;;1872869;75;21034;-45
2022/01/04 01:40:45;;;;;;;16.87;8.75;;;8.40;92.40;;;;;;1872687;76;21091;-45
2022/01/04 01:43:15;;;;;;;16.85;8.95;;;8.40;92.60;;;;;;1872977;76;21083;-44
2022/01/04 01:45:45;;;;;;;18.82;8.78;;;8.40;92.70;;;;;;1873086;75;21037;-44
2022/01/04 01:48:14;;;;;;;12.43;8.63;;;8.40;92.50;;;;;;1873064;76;21037;-46
2022/01/04 01:50:44;;;;;;;17.32;10.00;;;8.40;92.60;;;;;;1872998;76;21155;-46
2022/01/04 01:53:13;;;;;;;17.02;9.98;;;8.50;92.50;;;;;;1873054;76;21032;-45
2022/01/04 01:55:43;;;;;;;20.48;9.80;;;8.50;92.40;;;;;;1872901;77;21029;-44
2022/01/04 01:58:12;;;;;;;18.07;9.20;;;8.40;92.30;;;;;;1873072;75;21037;-44
2022/01/04 02:00:41;;;;;;;20.45;9.95;;;8.40;92.30;;;;;;1872951;77;21034;-45
2022/01/04 02:03:11;;;;;;;17.48;9.93;;;8.40;92.40;;;;;;1872909;76;21009;-46
2022/01/04 02:05:40;;;;;;;18.77;10.50;;;8.40;92.50;;;;;;1872871;75;21037;-45
2022/01/04 02:08:10;;;;;;;19.82;10.38;;;8.40;92.50;;;;;;1872965;77;21217;-44
2022/01/04 02:10:41;;;;;;;12.45;9.13;;;8.40;92.30;;;;;;1872812;77;21042;-44
2022/01/04 02:13:11;;;;;;;18.32;9.80;;;8.40;92.50;;;;;;1873029;76;21033;-44
2022/01/04 02:15:40;;;;;;;17.52;10.40;;;8.40;92.30;;;;;;1872826;77;21087;-45
2022/01/04 02:18:09;;;;;;;15.93;9.55;;;8.40;92.40;;;;;;1872904;75;21033;-45
2022/01/04 02:20:39;;;;;;;16.23;9.43;;;8.40;92.40;;;;;;1872918;75;21116;-45
2022/01/04 02:23:08;;;;;;;14.50;9.48;;;8.50;92.40;;;;;;1872798;76;21025;-44
2022/01/04 02:25:38;;;;;;;13.20;9.28;;;8.50;92.40;;;;;;1872944;77;21155;-45
2022/01/04 02:28:07;;;;;;;12.20;7.95;;;8.50;92.40;;;;;;1872921;76;21241;-46
2022/01/04 02:30:37;;;;;;;20.75;8.88;;;8.50;92.50;;;;;;1872902;77;21094;-44
2022/01/04 02:33:06;;;;;;;16.93;9.55;;;8.50;92.30;;;;;;1872804;77;21026;-44
2022/01/04 02:35:35;;;;;;;14.28;8.68;;;8.60;92.30;;;;;;1872956;75;21069;-45
2022/01/04 02:38:05;;;;;;;13.43;8.78;;;8.60;92.30;;;;;;1872951;76;21054;-45
2022/01/04 02:40:35;;;;;;;13.13;8.73;;;8.60;92.40;;;;;;1872899;77;21059;-45
2022/01/04 02:43:04;;;;;;;18.15;8.65;;;8.60;92.20;;;;;;1872906;75;21037;-44
2022/01/04 02:45:33;;;;;;;13.93;8.10;;;8.60;92.10;;;;;;1872752;75;21099;-44
2022/01/04 02:48:03;;;;;;;15.28;8.15;;;8.60;92.10;;;;;;1872926;75;21026;-45
2022/01/04 02:50:32;;;;;;;17.12;8.88;;;8.60;92.20;;;;;;1872745;77;21034;-44
2022/01/04 02:53:02;;;;;;;15.43;8.98;;;8.60;92.20;;;;;;1872919;77;21037;-45
2022/01/04 02:55:31;;;;;;;16.52;9.13;;;8.70;92.20;;;;;;1872753;76;21009;-44
2022/01/04 02:58:01;;;;;;;15.03;9.98;;;8.70;92.10;;;;;;1872899;77;21033;-45
2022/01/04 03:00:30;;;;;;;19.55;8.78;;;8.80;92.10;;;;;;1872753;77;21081;-45
2022/01/04 03:03:00;;;;;;;14.58;9.30;;;8.70;92.00;;;;;;1872794;75;21026;-44
2022/01/04 03:05:29;;;;;;;14.45;8.98;;;8.80;92.00;;;;;;1872915;75;21034;-45
2022/01/04 03:07:59;;;;;;;17.20;9.33;;;8.80;92.00;;;;;;1872794;75;21091;-45
2022/01/04 03:10:28;;;;;;;17.98;8.80;;;8.80;92.10;;;;;;1872731;75;21084;-44
2022/01/04 03:12:57;;;;;;;20.92;11.25;;;8.80;92.00;;;;;;1872920;75;21519;-45
2022/01/04 03:15:27;;;;;;;19.07;8.50;;;8.80;92.00;;;;;;1872880;75;21030;-45
2022/01/04 03:17:56;;;;;;;16.10;7.87;;;8.80;92.10;;;;;;1872906;75;21037;-45
2022/01/04 03:20:25;;;;;;;10.85;6.25;;;8.80;92.20;;;;;;1872896;77;21518;-44
2022/01/04 03:22:55;;;;;;;6.53;4.90;;;8.80;91.90;;;;;;1872846;75;21153;-44
2022/01/04 03:25:25;;;;;;;8.45;4.75;;;8.80;91.50;;;;;;1872806;76;21021;-44
2022/01/04 03:27:54;;;;;;;9.48;6.47;;;8.80;91.70;;;;;;1872934;77;21010;-45
2022/01/04 03:30:24;;;;;;;14.40;7.17;;;8.80;91.60;;;;;;1872817;76;21033;-44
2022/01/04 03:32:54;;;;;;;14.98;6.87;;;8.80;91.70;;;;;;1872943;75;21046;-44
2022/01/04 03:35:24;;;;;;;13.03;5.80;;;8.80;91.70;;;;;;1872739;77;21111;-44
2022/01/04 03:37:53;;;;;;;8.53;4.95;;;8.80;91.80;;;;;;1872923;76;21103;-44
2022/01/04 03:40:22;;;;;;;14.83;6.90;;;8.80;91.80;;;;;;1872834;76;21037;-44
2022/01/04 03:42:52;;;;;;;16.02;7.08;;;8.80;91.80;;;;;;1872913;76;21507;-45
2022/01/04 03:45:21;;;;;;;10.28;6.67;;;8.80;91.90;;;;;;1872971;77;21131;-44
2022/01/04 03:47:51;;;;;;;5.33;4.05;;;8.80;92.10;;;;;;1872971;75;21018;-45
2022/01/04 03:50:20;;;;;;;9.63;5.65;;;8.80;91.90;;;;;;1872798;76;21033;-45
2022/01/04 03:52:49;;;;;;;9.88;6.17;;;8.80;91.90;;;;;;1872839;76;21182;-45
2022/01/04 03:55:18;;;;;;;12.43;6.67;;;8.80;91.80;;;;;;1872848;77;21080;-45
2022/01/04 03:57:48;;;;;;;12.18;4.87;;;8.80;91.80;;;;;;1873074;75;21053;-45
2022/01/04 04:00:17;;;;;;;9.28;4.75;;;8.80;91.70;;;;;;1872814;77;21103;-44
2022/01/04 04:02:47;;;;;;;7.78;5.00;;;8.80;91.70;;;;;;1872836;77;21009;-44
2022/01/04 04:05:17;;;;;;;7.05;3.62;;;8.80;91.60;;;;;;1872829;76;21095;-45
2022/01/04 04:07:46;;;;;;;7.67;4.97;;;8.70;91.50;;;;;;1873172;75;21108;-44
2022/01/04 04:10:16;;;;;;;6.67;4.92;;;8.70;91.50;;;;;;1873048;77;21057;-46
2022/01/04 04:12:45;;;;;;;5.83;4.00;;;8.70;91.50;;;;;;1873207;77;21099;-44
2022/01/04 04:15:15;;;;;;;4.37;3.15;;;8.70;91.40;;;;;;1872936;77;21170;-44
2022/01/04 04:17:46;;;;;;;6.17;4.28;;;8.70;91.40;;;;;;1873053;77;21037;-45
2022/01/04 04:20:15;;;;;;;7.90;3.92;;;8.70;91.50;;;;;;1872856;77;21087;-44
2022/01/04 04:22:46;;;;;;;6.35;3.67;;;8.70;91.20;;;;;;1872824;77;21037;-44
2022/01/04 04:25:16;;;;;;;5.97;2.98;;;8.70;91.20;;;;;;1872862;77;21029;-45
2022/01/04 04:27:45;;;;;;;6.17;3.83;;;8.70;91.10;;;;;;1873047;75;21147;-45
2022/01/04 04:30:14;;;;;;;5.87;3.62;;;8.70;91.00;;;;;;1872825;77;21073;-45
2022/01/04 04:32:44;;;;;;;8.80;3.90;;;8.60;90.90;;;;;;1872879;75;21062;-44
2022/01/04 04:35:13;;;;;;;6.03;3.12;;;8.70;91.00;;;;;;1872853;76;21095;-46
2022/01/04 04:37:43;;;;;;;5.00;3.05;;;8.70;90.90;;;;;;1872962;75;21026;-44
2022/01/04 04:40:12;;;;;;;5.05;3.45;;;8.60;90.80;;;;;;1872818;75;21009;-45
2022/01/04 04:42:42;;;;;;;5.55;3.80;;;8.60;90.90;;;;;;1872823;76;21112;-46
2022/01/04 04:45:11;;;;;;;5.92;3.22;;;8.60;90.90;;;;;;1872869;75;21038;-45
2022/01/04 04:47:41;;;;;;;5.62;3.00;;;8.60;90.80;;;;;;1872965;75;21119;-44
2022/01/04 04:50:10;;;;;;;3.27;2.47;;;8.60;90.70;;;;;;1872919;77;21543;-44
2022/01/04 04:52:40;;;;;;;2.37;2.08;;;8.60;90.70;;;;;;1872832;76;21057;-45
2022/01/04 04:55:10;;;;;;;4.03;1.90;;;8.60;90.50;;;;;;1872876;75;21033;-45
2022/01/04 04:57:39;;;;;;;2.72;2.40;;;8.60;90.50;;;;;;1872968;75;21601;-45
2022/01/04 05:00:10;;;;;;;4.10;2.20;;;8.60;90.50;;;;;;1872848;75;21053;-45
2022/01/04 05:02:40;;;;;;;2.52;1.87;;;8.60;90.50;;;;;;1872816;76;21042;-44
2022/01/04 05:05:10;;;;;;;3.87;2.15;;;8.50;90.30;;;;;;1872809;75;21069;-44
2022/01/04 05:07:39;;;;;;;2.60;2.30;;;8.50;90.40;;;;;;1872927;75;21053;-45
2022/01/04 05:10:09;;;;;;;2.83;1.65;;;8.50;90.30;;;;;;1872835;75;21096;-45
2022/01/04 05:12:39;;;;;;;2.75;1.60;;;8.50;90.30;;;;;;1872830;77;21076;-45
2022/01/04 05:15:09;;;;;;;4.12;2.33;;;8.50;90.30;;;;;;1872918;75;21033;-45
2022/01/04 05:17:38;;;;;;;2.22;1.90;;;8.50;90.30;;;;;;1872833;76;21009;-44
2022/01/04 05:20:09;;;;;;;2.37;2.17;;;8.40;90.30;;;;;;1872836;76;21095;-45
2022/01/04 05:22:38;;;;;;;2.05;1.70;;;8.40;90.30;;;;;;1872748;76;21041;-45
2022/01/04 05:25:08;;;;;;;4.10;1.72;;;8.40;90.40;;;;;;1872806;76;21033;-45
2022/01/04 05:27:37;;;;;;;2.20;1.52;;;8.40;90.40;;;;;;1872852;75;21072;-45
2022/01/04 05:30:07;;;;;;;4.62;2.95;;;8.40;90.40;;;;;;1872753;76;21107;-45
2022/01/04 05:32:37;;;;;;;2.95;2.45;;;8.30;90.50;;;;;;1872799;75;21037;-45
2022/01/04 05:35:06;;;;;;;4.15;2.65;;;8.30;90.50;;;;;;1872953;75;21054;-45
2022/01/04 05:37:36;;;;;;;5.25;2.15;;;8.30;90.50;;;;;;1872856;76;21034;-44
2022/01/04 05:40:06;;;;;;;3.05;2.17;;;8.30;90.50;;;;;;1872825;75;21037;-45
2022/01/04 05:42:35;;;;;;;3.50;2.25;;;8.30;90.60;;;;;;1872761;75;21033;-46
2022/01/04 05:45:05;;;;;;;3.20;1.90;;;8.30;90.50;;;;;;1872864;75;21037;-45
2022/01/04 05:47:35;;;;;;;4.60;2.40;;;8.30;90.50;;;;;;1872824;76;21108;-45
2022/01/04 05:50:05;;;;;;;4.35;2.02;;;8.30;90.60;;;;;;1872939;77;21087;-45
2022/01/04 05:52:35;;;;;;;2.50;1.92;;;8.30;90.60;;;;;;1872832;75;21034;-45
2022/01/04 05:55:05;;;;;;;6.53;2.50;;;8.30;90.60;;;;;;1872882;75;21523;-45
2022/01/04 05:57:34;;;;;;;4.90;2.20;;;8.30;90.60;;;;;;1872938;76;21099;-45
2022/01/04 06:00:06;;;;;;;3.70;2.65;;;8.40;90.60;;;;;;1872809;76;21095;-44
2022/01/04 06:02:37;;;;;;;2.98;2.08;;;8.40;90.60;;;;;;1872766;75;21037;-46
2022/01/04 06:05:08;;;;;;;4.40;2.45;;;8.40;90.70;;;;;;1872902;75;21093;-46
2022/01/04 06:07:38;;;;;;;3.90;2.72;;;8.40;90.60;;;;;;1872898;77;21092;-45
2022/01/04 06:10:09;;;;;;;5.75;2.83;;;8.40;90.70;;;;;;1872804;76;21103;-45
2022/01/04 06:15:14;;;;;;;8.15;3.52;;;8.40;90.60;;;;;;1872931;77;21092;-46
2022/01/04 06:17:46;;;;;;;3.67;2.22;;;8.50;90.70;;;;;;1872841;76;21049;-45
2022/01/04 06:20:19;;;;;;;4.55;3.12;;;8.40;90.70;;;;;;1872711;75;21550;-45
2022/01/04 06:22:48;;;;;;;4.55;3.08;;;8.50;90.60;;;;;;1872691;75;21045;-45
2022/01/04 06:25:22;;;;;;;5.35;2.92;;;8.60;90.70;;;;;;1872757;75;21120;-45
2022/01/04 06:27:53;;;;;;;6.65;3.12;;;8.60;90.60;;;;;;1872728;76;21128;-44
2022/01/04 06:30:27;;;;;;;3.95;3.02;;;8.60;90.50;;;;;;1872927;75;21037;-49
2022/01/04 06:32:56;;;;;;;5.90;3.08;;;8.70;90.50;;;;;;1872826;75;21088;-46
2022/01/04 06:35:27;;;;;;;3.42;2.98;;;8.70;90.50;;;;;;1872621;75;21123;-46
2022/01/04 06:37:56;;;;;;;5.15;3.25;;;8.70;90.50;;;;;;1872743;75;21627;-44
2022/01/04 06:40:25;;;;;;;6.70;4.37;;;8.70;90.40;;;;;;1872803;77;21029;-45
2022/01/04 06:42:54;;;;;;;10.32;4.92;;;8.70;90.40;;;;;;1872611;75;21034;-45
2022/01/04 06:45:24;;;;;;;8.30;4.47;;;8.70;90.40;;;;;;1872997;77;21029;-46
2022/01/04 06:47:53;;;;;;;7.08;3.95;;;8.70;90.30;;;;;;1872797;76;21037;-45
2022/01/04 06:50:23;;;;;;;6.62;3.62;;;8.70;90.30;;;;;;1872925;75;21037;-45
2022/01/04 06:52:52;;;;;;;6.75;4.00;;;8.70;90.30;;;;;;1872870;75;21010;-45
2022/01/04 06:55:22;;;;;;;8.28;4.53;;;8.70;90.20;;;;;;1872863;75;21096;-45
2022/01/04 06:57:51;;;;;;;6.08;3.85;;;8.70;90.20;;;;;;1872914;77;21026;-46
2022/01/04 07:00:21;;;;;;;8.33;5.20;;;8.80;90.20;;;;;;1872839;76;21066;-45
2022/01/04 07:02:50;;;;;;;4.78;3.40;;;8.80;90.20;;;;;;1872766;75;21065;-45
2022/01/04 07:05:19;;;;;;;6.40;2.85;;;8.80;90.10;;;;;;1872831;75;21026;-45
2022/01/04 07:07:48;;;;;;;5.55;3.02;;;8.80;90.00;;;;;;1872793;75;21009;-45
2022/01/04 07:10:18;;;;;;;3.70;2.75;;;8.80;90.10;;;;;;1872694;75;21014;-45
2022/01/04 07:12:47;;;;;;;7.33;3.40;;;8.80;89.90;;;;;;1872695;75;21042;-45
2022/01/04 07:15:17;;;;;;;12.90;4.33;;;8.80;89.90;;;;;;1872761;77;21009;-44
2022/01/04 07:17:46;;;;;;;6.30;3.35;;;8.80;90.00;;;;;;1872685;77;21037;-45
2022/01/04 07:20:16;;;;;;;5.65;3.58;;;8.80;90.10;;;;;;1872731;76;21001;-46
2022/01/04 07:22:45;;;;;;;5.80;3.47;;;8.80;90.10;;;;;;1872543;75;21034;-45
2022/01/04 07:25:14;;;;;;;7.37;4.05;;;8.80;90.10;;;;;;1872605;75;21001;-45
2022/01/04 07:27:44;;;;;;;4.33;3.22;;;8.80;90.20;;;;;;1872625;77;21041;-45
2022/01/04 07:30:14;;;;;;;6.03;4.00;;;8.80;90.00;;;;;;1872601;75;21009;-45
2022/01/04 07:32:44;;;;;;;4.22;2.85;;;8.80;90.00;;;;;;1872680;75;21124;-45
2022/01/04 07:35:13;;;;;;;4.92;3.30;;;8.80;90.00;;;;;;1872641;75;21041;-45
2022/01/04 07:37:43;;;;;;;3.30;2.80;;;8.80;90.00;;;;;;1872686;76;21210;-45
2022/01/04 07:40:13;;;;;;;3.92;2.77;;;8.80;89.90;;;;;;1872642;75;21077;-46
2022/01/04 07:42:42;;;;;;;5.78;3.50;;;8.80;90.00;;;;;;1872790;75;21021;-45
2022/01/04 07:45:12;;;;;;;11.43;4.03;;;8.80;89.90;;;;;;1872896;76;21033;-46
2022/01/04 07:47:41;;;;;;;4.97;2.58;;;8.80;89.70;;;;;;1872788;75;21060;-45
2022/01/04 07:50:12;;;;;;;2.70;2.15;;;8.80;89.90;;;;;;1872880;75;21081;-45
2022/01/04 07:52:41;;;;;;;2.85;2.15;;;8.80;89.70;;;;;;1872788;76;21026;-47
2022/01/04 07:55:11;;;;;;;3.00;1.92;;;8.80;89.80;;;;;;1872770;76;21093;-45
2022/01/04 07:57:42;;;;;;;2.80;1.72;;;8.80;89.40;;;;;;1872758;76;21085;-45
2022/01/04 08:00:13;;;;;;;5.00;3.50;;;8.80;88.90;;;;;;1872880;75;21108;-44
2022/01/04 08:02:45;;;;;;;3.72;2.40;;;8.80;89.00;;;;;;1872926;75;21493;-45
2022/01/04 08:05:14;;;;;;;3.52;2.55;;;8.80;89.00;;;;;;1872913;75;21030;-46
2022/01/04 08:07:44;;;;;;;2.72;1.55;;;8.80;88.80;;;;;;1872633;75;21185;-44
2022/01/04 08:10:14;;;;;;;3.95;2.45;;;8.80;88.20;;;;;;1872839;75;21095;-45
2022/01/04 08:12:43;;;;;;;4.37;3.33;;;8.80;88.70;;;;;;1872699;75;21045;-44
2022/01/04 08:15:13;;;;;;;7.53;5.25;;;8.80;88.20;;;;;;1872797;75;21037;-46
2022/01/04 08:17:43;;;;;;;2.85;2.30;;;8.80;88.50;;;;;;1872718;75;21046;-45
2022/01/04 08:20:12;;;;;;;2.60;2.40;;;8.80;88.90;;;;;;1872782;75;21013;-44
2022/01/04 08:22:42;;;;;;;2.27;1.75;;;8.80;88.80;;;;;;1872682;75;21110;-47
2022/01/04 08:25:12;;;;;;;3.65;1.80;;;8.80;89.10;;;;;;1872715;75;21077;-46
2022/01/04 08:27:42;;;;;;;3.30;2.40;;;8.90;88.80;;;;;;1872665;75;21158;-47
2022/01/04 08:30:12;;;;;;;3.70;2.55;;;8.90;89.00;;;;;;1872750;75;21117;-44
2022/01/04 08:32:42;;;;;;;3.60;2.00;;;9.00;88.90;;;;;;1872694;75;21026;-44
2022/01/04 08:35:12;;;;;;;9.20;4.35;;;9.00;88.70;;;;;;1872745;76;21104;-45
2022/01/04 08:37:41;;;;;;;5.42;2.98;;;9.10;88.60;;;;;;1872653;76;21057;-45
2022/01/04 08:40:11;;;;;;;2.80;2.40;;;9.20;88.60;;;;;;1872741;75;21052;-45
2022/01/04 08:42:40;;;;;;;3.25;2.12;;;9.20;88.60;;;;;;1872666;76;21080;-45
2022/01/04 08:45:10;;;;;;;8.45;2.60;;;9.30;88.40;;;;;;1872706;77;21029;-46
2022/01/04 08:47:39;;;;;;;3.40;2.40;;;9.40;88.20;;;;;;1872807;77;21034;-45
2022/01/04 08:50:10;;;;;;;2.75;1.98;;;9.50;88.60;;;;;;1872861;75;21030;-47
2022/01/04 08:52:40;;;;;;;4.87;2.33;;;9.50;88.10;;;;;;1872716;76;21095;-45
2022/01/04 08:55:10;;;;;;;1.52;1.25;;;9.70;87.30;;;;;;1872885;75;21033;-47
2022/01/04 08:57:40;;;;;;;8.15;2.22;;;9.80;86.40;;;;;;1872741;75;21158;-47
2022/01/04 09:00:11;;;;;;;4.55;2.20;;;9.80;86.80;;;;;;1872755;76;21006;-45
2022/01/04 09:02:41;;;;;;;5.33;2.75;;;9.90;85.80;;;;;;1872655;77;21093;-45
2022/01/04 09:05:11;;;;;;;3.60;2.80;;;9.90;85.40;;;;;;1872802;77;21033;-45
2022/01/04 09:07:40;;;;;;;3.37;2.83;;;9.90;85.60;;;;;;1872738;76;21033;-46
2022/01/04 09:10:10;;;;;;;2.75;2.02;;;9.90;85.70;;;;;;1872851;76;21055;-45
2022/01/04 09:12:53;;;;;;;3.75;2.10;;;9.80;86.00;;;;;;1872734;75;21025;-45
2022/01/04 09:15:32;;;;;;;5.00;3.08;;;9.90;84.20;;;;;;1870629;76;21162;-45
2022/01/04 09:20:35;;;;;;;2.95;2.50;;;9.90;85.40;;;;;;1872855;77;21050;-45
2022/01/04 09:23:05;;;;;;;3.33;2.42;;;9.80;85.70;;;;;;1872677;75;21041;-45
2022/01/04 09:25:34;;;;;;;5.20;2.42;;;9.90;85.30;;;;;;1872821;76;21093;-45
2022/01/04 09:28:04;;;;;;;6.45;2.90;;;9.90;85.70;;;;;;1872959;76;21029;-46
2022/01/04 09:30:33;;;;;;;1.85;1.52;;;9.90;85.50;;;;;;1872851;75;21038;-45
2022/01/04 09:33:05;;;;;;;6.30;3.17;;;9.90;84.30;;;;;;1872880;75;21090;-46
2022/01/04 09:35:36;;;;;;;3.70;2.52;;;9.90;84.80;;;;;;1872809;75;21065;-45
2022/01/04 09:38:07;;;;;;;2.42;2.10;;;9.90;84.20;;;;;;1872834;75;21053;-45
2022/01/04 09:40:37;;;;;;;6.58;2.83;;;9.90;84.70;;;;;;1872958;76;21039;-45
2022/01/04 09:43:08;;;;;;;3.83;2.60;;;9.80;84.50;;;;;;1872918;75;21057;-45
2022/01/04 09:45:38;;;;;;;3.58;2.65;;;9.80;84.20;;;;;;1872914;75;21099;-45
2022/01/04 09:48:07;;;;;;;10.82;4.03;;;9.80;83.60;;;;;;1872877;76;21526;-47
2022/01/04 09:50:39;;;;;;;3.33;2.47;;;9.80;84.00;;;;;;1872795;75;21018;-45
2022/01/04 09:53:12;;;;;;;7.97;3.08;;;9.70;83.60;;;;;;1872878;77;21030;-46
2022/01/04 09:55:42;;;;;;;7.75;3.40;;;9.70;83.60;;;;;;1872885;75;21147;-45
2022/01/04 09:58:11;;;;;;;7.90;3.05;;;9.70;83.60;;;;;;1872711;75;21073;-44
2022/01/04 10:00:40;;;;;;;6.37;3.08;;;9.70;83.70;;;;;;1872737;76;21095;-46
2022/01/04 10:03:18;;;;;;;5.28;2.65;;;9.70;83.70;;;;;;1872619;76;21416;-45
2022/01/04 10:05:48;;;;;;;5.75;3.00;;;9.70;83.20;;;;;;1872816;77;21115;-45
2022/01/04 10:08:17;;;;;;;4.75;3.10;;;9.70;83.20;;;;;;1872869;75;21033;-45
2022/01/04 10:10:47;;;;;;;14.90;4.50;;;9.80;82.50;;;;;;1872720;75;21065;-48
2022/01/04 10:13:17;;;;;;;3.35;2.80;;;9.80;83.40;;;;;;1872663;76;21038;-46
2022/01/04 10:15:50;;;;;;;2.70;2.10;;;9.80;82.10;;;;;;1872727;76;21163;-46
2022/01/04 10:18:23;;;;;;;3.25;1.98;;;9.80;80.90;;;;;;1872832;77;21014;-45
2022/01/04 10:21:05;;;;;;;2.58;1.90;;;9.80;80.10;;;;;;1872837;77;21457;-45
2022/01/04 10:23:32;;;;;;;5.78;2.80;;;9.80;79.40;;;;;;1871520;77;21167;-47
2022/01/04 10:26:07;;;;;;;7.15;2.80;;;9.80;80.40;;;;;;1872850;75;21045;-46
2022/01/04 10:28:42;;;;;;;6.33;2.83;;;9.80;80.40;;;;;;1873109;75;21033;-44
2022/01/04 10:31:14;;;;;;;2.62;2.05;;;9.70;79.40;;;;;;1872998;75;21155;-44
2022/01/04 10:33:44;;;;;;;5.90;2.35;;;9.70;78.90;;;;;;1872821;77;21041;-47
2022/01/04 10:36:14;;;;;;;3.33;2.90;;;9.70;79.30;;;;;;1872803;75;21061;-44
2022/01/04 10:38:48;;;;;;;6.35;3.42;;;9.70;79.60;;;;;;1872925;75;21057;-44
2022/01/04 10:41:25;;;;;;;6.97;3.37;;;9.70;79.20;;;;;;1873208;75;21507;-44
2022/01/04 10:43:56;;;;;;;9.90;3.02;;;9.60;79.40;;;;;;1872865;75;21092;-45
2022/01/04 10:46:45;;;;;;;3.55;2.70;;;9.60;79.80;;;;;;1872892;76;21037;-44
2022/01/04 10:49:22;;;;;;;5.15;2.83;;;9.60;80.30;;;;;;1872294;75;21062;-44
2022/01/04 10:52:16;;;;;;;8.38;4.08;;;9.60;80.10;;;;;;1872970;77;21136;-44
2022/01/04 10:54:42;;;;;;;3.60;2.87;;;9.50;80.60;;;;;;1872341;75;21155;-44
2022/01/04 10:57:12;;;;;;;4.78;3.45;;;9.50;80.70;;;;;;1872742;76;21126;-44
2022/01/04 10:59:41;;;;;;;6.53;3.37;;;9.40;81.30;;;;;;1872879;75;21061;-43
2022/01/04 11:02:10;;;;;;;6.92;3.40;;;9.40;81.70;;;;;;1872685;75;21037;-44
2022/01/04 11:04:42;;;;;;;4.28;2.87;;;9.40;81.80;;;;;;1873005;75;21061;-44
2022/01/04 11:07:11;;;;;;;3.85;2.75;;;9.40;81.80;;;;;;1872722;76;21374;-44
2022/01/04 11:09:42;;;;;;;6.25;3.08;;;9.40;81.10;;;;;;1872844;75;21112;-44
2022/01/04 11:12:11;;;;;;;9.55;3.12;;;9.40;81.90;;;;;;1872761;77;21034;-44
2022/01/04 11:14:42;;;;;;;3.05;2.35;;;9.40;80.90;;;;;;1872789;75;21033;-44
2022/01/04 11:17:11;;;;;;;3.42;2.50;;;9.40;81.10;;;;;;1872971;75;21041;-44
2022/01/04 11:19:40;;;;;;;3.20;2.75;;;9.40;80.70;;;;;;1872916;77;21037;-44
2022/01/04 11:22:10;;;;;;;2.37;1.85;;;9.40;80.70;;;;;;1872931;75;21206;-47
2022/01/04 11:24:41;;;;;;;5.35;3.42;;;9.40;79.60;;;;;;1872999;76;21033;-44
2022/01/04 11:27:11;;;;;;;3.52;2.45;;;9.40;81.00;;;;;;1872969;75;21111;-44
2022/01/04 11:29:44;;;;;;;5.28;2.22;;;9.40;81.10;;;;;;1871873;75;21084;-44
2022/01/04 11:32:16;;;;;;;6.65;2.98;;;9.30;80.60;;;;;;1873087;75;21070;-44
2022/01/04 11:35:06;;;;;;;6.53;3.20;;;9.30;81.30;;;;;;1872903;75;21488;-44
2022/01/04 11:37:38;;;;;;;4.78;3.35;;;9.30;81.00;;;;;;1872274;75;21041;-44
2022/01/04 11:40:34;;;;;;;4.17;1.92;;;9.30;81.40;;;;;;1872983;76;21137;-45
2022/01/04 11:43:05;;;;;;;3.92;2.55;;;9.30;80.50;;;;;;1843211;78;21081;-44
2022/01/04 11:45:46;;;;;;;9.75;3.27;;;9.30;80.20;;;;;;1866357;75;21084;-44
2022/01/04 11:48:40;;;;;;;6.47;3.22;;;9.20;80.90;;;;;;1872950;76;21042;-44
2022/01/04 11:51:32;;;;;;;7.12;2.60;;;9.20;80.80;;;;;;1872917;76;21045;-46
2022/01/04 11:54:22;;;;;;;8.08;3.65;;;9.20;81.20;;;;;;1872881;75;21127;-44
2022/01/04 11:57:08;;;;;;;3.17;2.37;;;9.20;81.00;;;;;;1872945;76;21072;-44
2022/01/04 11:59:44;;;;;;;3.67;2.75;;;9.20;81.20;;;;;;1872914;76;21527;-44
2022/01/04 12:02:37;;;;;;;2.42;2.22;;;9.20;80.40;;;;;;1872942;76;21112;-43
2022/01/04 12:05:25;;;;;;;6.03;3.15;;;9.10;80.80;;;;;;1872825;75;21104;-46
2022/01/04 12:07:55;;;;;;;3.33;2.72;;;9.10;80.90;;;;;;1872898;75;21096;-44
2022/01/04 12:10:27;;;;;;;10.40;4.97;;;9.10;81.10;;;;;;1872814;76;21182;-44
2022/01/04 12:13:14;;;;;;;3.83;3.08;;;9.10;81.10;;;;;;1872781;77;21057;-44
2022/01/04 12:15:52;;;;;;;2.58;2.25;;;9.00;80.90;;;;;;1872987;77;21112;-45
2022/01/04 12:18:27;;;;;;;2.77;2.08;;;9.00;80.40;;;;;;1872772;75;21029;-44
2022/01/04 12:20:56;;;;;;;;;;;9.00;80.40;;;;;;1875636;75;21006;-44
2022/01/04 12:23:37;;;;;;;7.22;6.60;;;8.90;80.90;;;;;;1873017;77;20136;-43
2022/01/04 12:26:13;;;;;;;12.88;9.03;;;8.90;81.20;;;;;;1872959;77;21073;-43
2022/01/04 12:28:48;;;;;;;41.63;23.25;;;8.90;81.50;;;;;;1872885;77;21065;-44
2022/01/04 12:31:26;;;;;;;;;;;8.80;81.80;;;;;;1875877;75;21104;-44
2022/01/04 12:33:57;;;;;;;19.57;10.30;;;8.80;82.00;;;;;;1872024;76;20199;-44
2022/01/04 12:36:34;;;;;;;7.83;5.35;;;8.80;82.10;;;;;;1873169;76;21113;-44
2022/01/04 12:39:06;;;;;;;4.45;3.90;;;8.80;82.20;;;;;;1882426;76;21016;-45
2022/01/04 12:41:37;;;;;;;6.85;4.90;;;8.70;82.10;;;;;;1882321;76;21086;-44
2022/01/04 12:44:07;;;;;;;8.43;5.60;;;8.70;82.30;;;;;;1882401;75;21502;-44
2022/01/04 12:46:39;;;;;;;9.28;4.70;;;8.70;82.50;;;;;;1882278;75;21047;-44
2022/01/04 12:49:13;;;;;;;11.03;7.42;;;8.70;82.70;;;;;;1882504;75;21012;-44
2022/01/04 12:51:52;;;;;;;10.03;7.03;;;8.70;82.80;;;;;;1882507;75;21568;-44
2022/01/04 12:54:26;;;;;;;7.10;5.12;;;8.60;83.20;;;;;;1881966;75;21121;-44
2022/01/04 12:56:58;;;;;;;18.70;14.03;;;8.60;83.00;;;;;;1882393;75;21510;-44
2022/01/04 12:59:30;;;;;;;11.55;8.70;;;8.60;83.20;;;;;;1882583;75;21106;-43
2022/01/04 13:02:05;;;;;;;19.75;14.85;;;8.60;83.30;;;;;;1882335;76;21113;-45
2022/01/04 13:04:36;;;;;;;21.90;16.73;;;8.60;83.40;;;;;;1882544;76;21052;-46
2022/01/04 13:07:08;;;;;;;14.87;9.23;;;8.60;83.50;;;;;;1882356;75;21056;-44
2022/01/04 13:09:37;;;;;;;20.00;12.07;;;8.50;83.60;;;;;;1880686;75;21072;-46
2022/01/04 13:12:07;;;;;;;13.60;8.88;;;8.50;83.60;;;;;;1882342;76;21043;-44
2022/01/04 13:14:37;;;;;;;12.82;5.95;;;8.50;83.80;;;;;;1882236;75;21036;-44
2022/01/04 13:17:11;;;;;;;13.68;8.63;;;8.40;83.90;;;;;;1882243;75;21106;-44
2022/01/04 13:19:42;;;;;;;10.23;5.47;;;8.40;83.90;;;;;;1882412;75;21044;-45
2022/01/04 13:22:14;;;;;;;9.73;4.78;;;8.40;83.80;;;;;;1882097;76;21378;-46
2022/01/04 13:24:49;;;;;;;7.53;5.58;;;8.40;84.00;;;;;;1882251;75;21119;-44